sensor_id;sensor_type;location;lat;lon;timestamp;P1;durP1;ratioP1;P2;durP2;ratioP2
75932;SDS011;64803;52.356;5.310;2023-07-13T00:01:29;18.67;;;3.03;;
75932;SDS011;64803;52.356;5.310;2023-07-13T00:03:56;15.73;;;3.20;;
75932;SDS011;64803;52.356;5.310;2023-07-13T00:06:23;16.02;;;3.05;;
75932;SDS011;64803;52.356;5.310;2023-07-13T00:08:49;16.75;;;3.00;;
75932;SDS011;64803;52.356;5.310;2023-07-13T00:11:16;25.27;;;4.13;;
75932;SDS011;64803;52.356;5.310;2023-07-13T00:13:43;19.05;;;3.65;;
75932;SDS011;64803;52.356;5.310;2023-07-13T00:16:10;18.15;;;3.33;;
75932;SDS011;64803;52.356;5.310;2023-07-13T00:18:39;23.30;;;3.45;;
75932;SDS011;64803;52.356;5.310;2023-07-13T00:21:05;16.13;;;3.80;;
75932;SDS011;64803;52.356;5.310;2023-07-13T00:23:35;22.75;;;3.40;;
75932;SDS011;64803;52.356;5.310;2023-07-13T00:26:03;16.88;;;3.45;;
75932;SDS011;64803;52.356;5.310;2023-07-13T00:28:31;17.80;;;3.72;;
75932;SDS011;64803;52.356;5.310;2023-07-13T00:30:58;32.92;;;4.13;;
75932;SDS011;64803;52.356;5.310;2023-07-13T00:33:24;25.05;;;3.92;;
75932;SDS011;64803;52.356;5.310;2023-07-13T00:35:50;15.35;;;3.38;;
75932;SDS011;64803;52.356;5.310;2023-07-13T00:38:16;23.23;;;4.00;;
75932;SDS011;64803;52.356;5.310;2023-07-13T00:40:42;19.05;;;3.22;;
75932;SDS011;64803;52.356;5.310;2023-07-13T00:43:13;16.33;;;4.68;;
75932;SDS011;64803;52.356;5.310;2023-07-13T00:48:18;17.85;;;3.28;;
75932;SDS011;64803;52.356;5.310;2023-07-13T00:50:48;24.90;;;3.90;;
75932;SDS011;64803;52.356;5.310;2023-07-13T00:53:18;19.42;;;4.47;;
75932;SDS011;64803;52.356;5.310;2023-07-13T00:55:46;21.40;;;3.70;;
75932;SDS011;64803;52.356;5.310;2023-07-13T00:58:15;13.30;;;2.70;;
75932;SDS011;64803;52.356;5.310;2023-07-13T01:00:42;20.58;;;4.60;;
75932;SDS011;64803;52.356;5.310;2023-07-13T01:03:08;22.92;;;4.30;;
75932;SDS011;64803;52.356;5.310;2023-07-13T01:05:35;22.38;;;4.15;;
75932;SDS011;64803;52.356;5.310;2023-07-13T01:08:03;22.15;;;4.00;;
75932;SDS011;64803;52.356;5.310;2023-07-13T01:10:32;19.80;;;3.85;;
75932;SDS011;64803;52.356;5.310;2023-07-13T01:13:08;17.55;;;3.90;;
75932;SDS011;64803;52.356;5.310;2023-07-13T01:15:40;25.67;;;4.40;;
75932;SDS011;64803;52.356;5.310;2023-07-13T01:18:16;21.58;;;4.35;;
75932;SDS011;64803;52.356;5.310;2023-07-13T01:23:20;19.70;;;3.83;;
75932;SDS011;64803;52.356;5.310;2023-07-13T01:25:48;20.88;;;3.78;;
75932;SDS011;64803;52.356;5.310;2023-07-13T01:28:15;14.32;;;3.25;;
75932;SDS011;64803;52.356;5.310;2023-07-13T01:30:43;19.17;;;4.55;;
75932;SDS011;64803;52.356;5.310;2023-07-13T01:33:12;15.60;;;3.15;;
75932;SDS011;64803;52.356;5.310;2023-07-13T01:35:40;15.85;;;3.60;;
75932;SDS011;64803;52.356;5.310;2023-07-13T01:38:07;20.77;;;4.07;;
75932;SDS011;64803;52.356;5.310;2023-07-13T01:40:34;22.35;;;4.05;;
75932;SDS011;64803;52.356;5.310;2023-07-13T01:43:01;21.35;;;4.45;;
75932;SDS011;64803;52.356;5.310;2023-07-13T01:45:27;20.08;;;3.63;;
75932;SDS011;64803;52.356;5.310;2023-07-13T01:47:53;15.30;;;3.88;;
75932;SDS011;64803;52.356;5.310;2023-07-13T01:50:19;19.65;;;3.45;;
75932;SDS011;64803;52.356;5.310;2023-07-13T01:52:46;16.65;;;2.92;;
75932;SDS011;64803;52.356;5.310;2023-07-13T01:57:40;21.17;;;3.40;;
75932;SDS011;64803;52.356;5.310;2023-07-13T02:00:08;16.73;;;3.28;;
75932;SDS011;64803;52.356;5.310;2023-07-13T02:02:41;24.23;;;4.97;;
75932;SDS011;64803;52.356;5.310;2023-07-13T02:05:09;17.27;;;3.53;;
75932;SDS011;64803;52.356;5.310;2023-07-13T02:07:36;23.60;;;3.53;;
75932;SDS011;64803;52.356;5.310;2023-07-13T02:10:03;16.08;;;3.30;;
75932;SDS011;64803;52.356;5.310;2023-07-13T02:12:30;18.33;;;3.30;;
75932;SDS011;64803;52.356;5.310;2023-07-13T02:14:56;18.60;;;3.55;;
75932;SDS011;64803;52.356;5.310;2023-07-13T02:17:22;19.83;;;3.45;;
75932;SDS011;64803;52.356;5.310;2023-07-13T02:19:48;16.35;;;4.15;;
75932;SDS011;64803;52.356;5.310;2023-07-13T02:22:15;19.90;;;3.65;;
75932;SDS011;64803;52.356;5.310;2023-07-13T02:24:41;15.00;;;3.65;;
75932;SDS011;64803;52.356;5.310;2023-07-13T02:27:07;14.05;;;3.42;;
75932;SDS011;64803;52.356;5.310;2023-07-13T02:29:33;21.90;;;3.33;;
75932;SDS011;64803;52.356;5.310;2023-07-13T02:31:59;14.90;;;3.95;;
75932;SDS011;64803;52.356;5.310;2023-07-13T02:34:25;19.83;;;3.20;;
75932;SDS011;64803;52.356;5.310;2023-07-13T02:36:51;21.88;;;4.22;;
75932;SDS011;64803;52.356;5.310;2023-07-13T02:39:17;16.17;;;4.15;;
75932;SDS011;64803;52.356;5.310;2023-07-13T02:41:43;17.20;;;3.85;;
75932;SDS011;64803;52.356;5.310;2023-07-13T02:44:13;23.63;;;4.30;;
75932;SDS011;64803;52.356;5.310;2023-07-13T02:46:41;22.25;;;4.55;;
75932;SDS011;64803;52.356;5.310;2023-07-13T02:49:07;15.50;;;4.03;;
75932;SDS011;64803;52.356;5.310;2023-07-13T02:51:33;19.23;;;3.83;;
75932;SDS011;64803;52.356;5.310;2023-07-13T02:54:01;24.00;;;4.13;;
75932;SDS011;64803;52.356;5.310;2023-07-13T02:56:29;14.70;;;3.53;;
75932;SDS011;64803;52.356;5.310;2023-07-13T02:58:57;12.80;;;4.20;;
75932;SDS011;64803;52.356;5.310;2023-07-13T03:01:24;19.40;;;3.78;;
75932;SDS011;64803;52.356;5.310;2023-07-13T03:03:50;20.20;;;4.63;;
75932;SDS011;64803;52.356;5.310;2023-07-13T03:06:19;17.38;;;3.92;;
75932;SDS011;64803;52.356;5.310;2023-07-13T03:08:50;23.48;;;3.63;;
75932;SDS011;64803;52.356;5.310;2023-07-13T03:11:17;23.05;;;4.03;;
75932;SDS011;64803;52.356;5.310;2023-07-13T03:13:49;13.85;;;3.70;;
75932;SDS011;64803;52.356;5.310;2023-07-13T03:16:16;20.05;;;3.85;;
75932;SDS011;64803;52.356;5.310;2023-07-13T03:18:45;20.92;;;4.20;;
75932;SDS011;64803;52.356;5.310;2023-07-13T03:21:12;20.58;;;3.92;;
75932;SDS011;64803;52.356;5.310;2023-07-13T03:23:39;20.90;;;4.03;;
75932;SDS011;64803;52.356;5.310;2023-07-13T03:26:07;19.33;;;3.25;;
75932;SDS011;64803;52.356;5.310;2023-07-13T03:28:35;14.32;;;3.67;;
75932;SDS011;64803;52.356;5.310;2023-07-13T03:31:07;30.13;;;4.47;;
75932;SDS011;64803;52.356;5.310;2023-07-13T03:33:35;23.10;;;4.10;;
75932;SDS011;64803;52.356;5.310;2023-07-13T03:36:03;22.50;;;3.88;;
75932;SDS011;64803;52.356;5.310;2023-07-13T03:38:30;18.40;;;3.28;;
75932;SDS011;64803;52.356;5.310;2023-07-13T03:40:57;17.55;;;3.30;;
75932;SDS011;64803;52.356;5.310;2023-07-13T03:43:23;15.15;;;3.45;;
75932;SDS011;64803;52.356;5.310;2023-07-13T03:45:49;11.70;;;2.50;;
75932;SDS011;64803;52.356;5.310;2023-07-13T03:48:15;13.52;;;3.03;;
75932;SDS011;64803;52.356;5.310;2023-07-13T03:50:41;15.32;;;2.83;;
75932;SDS011;64803;52.356;5.310;2023-07-13T03:53:07;10.30;;;2.25;;
75932;SDS011;64803;52.356;5.310;2023-07-13T03:55:33;13.82;;;2.70;;
75932;SDS011;64803;52.356;5.310;2023-07-13T04:00:47;14.13;;;2.80;;
75932;SDS011;64803;52.356;5.310;2023-07-13T04:03:13;9.52;;;2.63;;
75932;SDS011;64803;52.356;5.310;2023-07-13T04:05:40;12.75;;;2.22;;
75932;SDS011;64803;52.356;5.310;2023-07-13T04:08:06;18.08;;;2.30;;
75932;SDS011;64803;52.356;5.310;2023-07-13T04:10:33;13.38;;;2.13;;
75932;SDS011;64803;52.356;5.310;2023-07-13T04:12:59;14.10;;;2.10;;
75932;SDS011;64803;52.356;5.310;2023-07-13T04:15:25;11.32;;;1.90;;
75932;SDS011;64803;52.356;5.310;2023-07-13T04:17:53;7.95;;;2.15;;
75932;SDS011;64803;52.356;5.310;2023-07-13T04:20:19;16.05;;;2.00;;
75932;SDS011;64803;52.356;5.310;2023-07-13T04:22:46;8.05;;;1.70;;
75932;SDS011;64803;52.356;5.310;2023-07-13T04:25:12;15.07;;;2.35;;
75932;SDS011;64803;52.356;5.310;2023-07-13T04:27:38;9.55;;;1.70;;
75932;SDS011;64803;52.356;5.310;2023-07-13T04:30:05;8.90;;;2.05;;
75932;SDS011;64803;52.356;5.310;2023-07-13T04:32:32;17.67;;;2.30;;
75932;SDS011;64803;52.356;5.310;2023-07-13T04:34:58;11.23;;;2.25;;
75932;SDS011;64803;52.356;5.310;2023-07-13T04:37:25;15.57;;;2.00;;
75932;SDS011;64803;52.356;5.310;2023-07-13T04:39:52;10.35;;;2.30;;
75932;SDS011;64803;52.356;5.310;2023-07-13T04:42:18;13.65;;;2.35;;
75932;SDS011;64803;52.356;5.310;2023-07-13T04:44:48;8.73;;;1.98;;
75932;SDS011;64803;52.356;5.310;2023-07-13T04:47:15;13.20;;;2.40;;
75932;SDS011;64803;52.356;5.310;2023-07-13T04:49:41;13.25;;;2.17;;
75932;SDS011;64803;52.356;5.310;2023-07-13T04:52:08;11.50;;;2.33;;
75932;SDS011;64803;52.356;5.310;2023-07-13T04:54:34;10.82;;;2.00;;
75932;SDS011;64803;52.356;5.310;2023-07-13T04:57:00;17.27;;;2.50;;
75932;SDS011;64803;52.356;5.310;2023-07-13T04:59:26;15.38;;;2.85;;
75932;SDS011;64803;52.356;5.310;2023-07-13T05:01:53;13.45;;;2.50;;
75932;SDS011;64803;52.356;5.310;2023-07-13T05:04:19;10.63;;;2.15;;
75932;SDS011;64803;52.356;5.310;2023-07-13T05:06:45;14.00;;;2.75;;
75932;SDS011;64803;52.356;5.310;2023-07-13T05:09:11;12.73;;;2.40;;
75932;SDS011;64803;52.356;5.310;2023-07-13T05:11:38;15.30;;;3.72;;
75932;SDS011;64803;52.356;5.310;2023-07-13T05:14:05;14.55;;;2.50;;
75932;SDS011;64803;52.356;5.310;2023-07-13T05:16:31;11.30;;;2.67;;
75932;SDS011;64803;52.356;5.310;2023-07-13T05:18:58;15.48;;;2.90;;
75932;SDS011;64803;52.356;5.310;2023-07-13T05:21:24;16.70;;;2.72;;
75932;SDS011;64803;52.356;5.310;2023-07-13T05:23:50;13.32;;;2.47;;
75932;SDS011;64803;52.356;5.310;2023-07-13T05:26:16;18.13;;;3.05;;
75932;SDS011;64803;52.356;5.310;2023-07-13T05:28:42;14.38;;;3.15;;
75932;SDS011;64803;52.356;5.310;2023-07-13T05:31:09;13.20;;;2.60;;
75932;SDS011;64803;52.356;5.310;2023-07-13T05:33:35;11.32;;;3.00;;
75932;SDS011;64803;52.356;5.310;2023-07-13T05:36:02;19.35;;;3.22;;
75932;SDS011;64803;52.356;5.310;2023-07-13T05:38:28;17.05;;;2.85;;
75932;SDS011;64803;52.356;5.310;2023-07-13T05:40:55;16.42;;;2.80;;
75932;SDS011;64803;52.356;5.310;2023-07-13T05:43:21;15.77;;;3.30;;
75932;SDS011;64803;52.356;5.310;2023-07-13T05:45:48;14.25;;;2.60;;
75932;SDS011;64803;52.356;5.310;2023-07-13T05:48:15;12.43;;;3.30;;
75932;SDS011;64803;52.356;5.310;2023-07-13T05:50:41;18.85;;;3.33;;
75932;SDS011;64803;52.356;5.310;2023-07-13T05:53:07;20.63;;;3.58;;
75932;SDS011;64803;52.356;5.310;2023-07-13T05:55:33;14.93;;;2.90;;
75932;SDS011;64803;52.356;5.310;2023-07-13T05:58:00;20.00;;;3.92;;
75932;SDS011;64803;52.356;5.310;2023-07-13T06:00:27;20.77;;;4.50;;
75932;SDS011;64803;52.356;5.310;2023-07-13T06:02:53;17.27;;;3.47;;
75932;SDS011;64803;52.356;5.310;2023-07-13T06:05:19;17.70;;;3.50;;
75932;SDS011;64803;52.356;5.310;2023-07-13T06:07:45;17.08;;;3.35;;
75932;SDS011;64803;52.356;5.310;2023-07-13T06:10:11;19.00;;;3.50;;
75932;SDS011;64803;52.356;5.310;2023-07-13T06:12:37;11.73;;;2.95;;
75932;SDS011;64803;52.356;5.310;2023-07-13T06:15:03;18.02;;;3.42;;
75932;SDS011;64803;52.356;5.310;2023-07-13T06:17:29;14.43;;;2.50;;
75932;SDS011;64803;52.356;5.310;2023-07-13T06:19:56;16.52;;;2.92;;
75932;SDS011;64803;52.356;5.310;2023-07-13T06:22:22;13.73;;;3.05;;
75932;SDS011;64803;52.356;5.310;2023-07-13T06:24:48;14.07;;;2.65;;
75932;SDS011;64803;52.356;5.310;2023-07-13T06:27:15;11.52;;;2.72;;
75932;SDS011;64803;52.356;5.310;2023-07-13T06:29:41;11.40;;;2.70;;
75932;SDS011;64803;52.356;5.310;2023-07-13T06:32:10;12.57;;;3.00;;
75932;SDS011;64803;52.356;5.310;2023-07-13T06:34:36;11.13;;;2.53;;
75932;SDS011;64803;52.356;5.310;2023-07-13T06:37:02;20.08;;;2.80;;
75932;SDS011;64803;52.356;5.310;2023-07-13T06:39:29;13.57;;;3.45;;
75932;SDS011;64803;52.356;5.310;2023-07-13T06:41:55;12.35;;;2.65;;
75932;SDS011;64803;52.356;5.310;2023-07-13T06:44:21;16.70;;;3.05;;
75932;SDS011;64803;52.356;5.310;2023-07-13T06:46:47;13.02;;;2.70;;
75932;SDS011;64803;52.356;5.310;2023-07-13T06:49:13;11.35;;;2.53;;
75932;SDS011;64803;52.356;5.310;2023-07-13T06:51:40;15.20;;;3.08;;
75932;SDS011;64803;52.356;5.310;2023-07-13T06:54:06;17.35;;;3.00;;
75932;SDS011;64803;52.356;5.310;2023-07-13T06:56:32;11.00;;;2.70;;
75932;SDS011;64803;52.356;5.310;2023-07-13T06:58:58;15.88;;;3.22;;
75932;SDS011;64803;52.356;5.310;2023-07-13T07:01:24;12.18;;;3.20;;
75932;SDS011;64803;52.356;5.310;2023-07-13T07:03:50;11.35;;;3.13;;
75932;SDS011;64803;52.356;5.310;2023-07-13T07:06:17;13.15;;;3.72;;
75932;SDS011;64803;52.356;5.310;2023-07-13T07:08:45;11.25;;;3.30;;
75932;SDS011;64803;52.356;5.310;2023-07-13T07:11:12;11.65;;;2.70;;
75932;SDS011;64803;52.356;5.310;2023-07-13T07:13:42;18.13;;;3.05;;
75932;SDS011;64803;52.356;5.310;2023-07-13T07:16:09;14.35;;;3.20;;
75932;SDS011;64803;52.356;5.310;2023-07-13T07:18:35;13.30;;;3.38;;
75932;SDS011;64803;52.356;5.310;2023-07-13T07:21:01;12.93;;;3.25;;
75932;SDS011;64803;52.356;5.310;2023-07-13T07:23:28;23.98;;;4.97;;
75932;SDS011;64803;52.356;5.310;2023-07-13T07:25:54;12.93;;;3.45;;
75932;SDS011;64803;52.356;5.310;2023-07-13T07:28:20;11.82;;;3.30;;
75932;SDS011;64803;52.356;5.310;2023-07-13T07:30:47;9.25;;;2.45;;
75932;SDS011;64803;52.356;5.310;2023-07-13T07:33:14;7.05;;;2.10;;
75932;SDS011;64803;52.356;5.310;2023-07-13T07:35:42;10.52;;;2.65;;
75932;SDS011;64803;52.356;5.310;2023-07-13T07:38:09;7.55;;;2.90;;
75932;SDS011;64803;52.356;5.310;2023-07-13T07:40:38;8.63;;;2.22;;
75932;SDS011;64803;52.356;5.310;2023-07-13T07:43:08;7.70;;;2.47;;
75932;SDS011;64803;52.356;5.310;2023-07-13T07:45:36;7.47;;;2.17;;
75932;SDS011;64803;52.356;5.310;2023-07-13T07:48:03;6.70;;;2.45;;
75932;SDS011;64803;52.356;5.310;2023-07-13T07:50:30;5.88;;;2.03;;
75932;SDS011;64803;52.356;5.310;2023-07-13T07:52:57;5.82;;;2.03;;
75932;SDS011;64803;52.356;5.310;2023-07-13T07:55:24;8.85;;;2.30;;
75932;SDS011;64803;52.356;5.310;2023-07-13T07:57:52;9.55;;;2.38;;
75932;SDS011;64803;52.356;5.310;2023-07-13T08:00:18;8.02;;;2.13;;
75932;SDS011;64803;52.356;5.310;2023-07-13T08:02:47;6.88;;;2.40;;
75932;SDS011;64803;52.356;5.310;2023-07-13T08:05:13;9.85;;;2.35;;
75932;SDS011;64803;52.356;5.310;2023-07-13T08:07:41;9.43;;;2.53;;
75932;SDS011;64803;52.356;5.310;2023-07-13T08:10:07;10.23;;;2.78;;
75932;SDS011;64803;52.356;5.310;2023-07-13T08:12:35;8.57;;;2.63;;
75932;SDS011;64803;52.356;5.310;2023-07-13T08:15:05;8.68;;;2.60;;
75932;SDS011;64803;52.356;5.310;2023-07-13T08:17:34;11.70;;;2.28;;
75932;SDS011;64803;52.356;5.310;2023-07-13T08:20:00;8.65;;;2.42;;
75932;SDS011;64803;52.356;5.310;2023-07-13T08:22:27;7.88;;;2.30;;
75932;SDS011;64803;52.356;5.310;2023-07-13T08:24:53;9.30;;;2.47;;
75932;SDS011;64803;52.356;5.310;2023-07-13T08:27:23;10.38;;;2.55;;
75932;SDS011;64803;52.356;5.310;2023-07-13T08:29:49;8.55;;;2.75;;
75932;SDS011;64803;52.356;5.310;2023-07-13T08:32:17;12.50;;;3.30;;
75932;SDS011;64803;52.356;5.310;2023-07-13T08:34:43;9.40;;;2.95;;
75932;SDS011;64803;52.356;5.310;2023-07-13T08:37:10;9.90;;;2.97;;
75932;SDS011;64803;52.356;5.310;2023-07-13T08:39:36;11.50;;;2.83;;
75932;SDS011;64803;52.356;5.310;2023-07-13T08:44:50;7.35;;;2.25;;
75932;SDS011;64803;52.356;5.310;2023-07-13T08:47:39;15.60;;;3.22;;
75932;SDS011;64803;52.356;5.310;2023-07-13T08:50:11;11.30;;;3.10;;
75932;SDS011;64803;52.356;5.310;2023-07-13T08:52:40;15.10;;;3.08;;
75932;SDS011;64803;52.356;5.310;2023-07-13T08:55:18;11.73;;;3.10;;
75932;SDS011;64803;52.356;5.310;2023-07-13T08:57:52;10.00;;;3.00;;
75932;SDS011;64803;52.356;5.310;2023-07-13T09:00:23;9.50;;;2.90;;
75932;SDS011;64803;52.356;5.310;2023-07-13T09:02:57;10.77;;;3.42;;
75932;SDS011;64803;52.356;5.310;2023-07-13T09:05:29;12.32;;;3.15;;
75932;SDS011;64803;52.356;5.310;2023-07-13T09:10:39;8.50;;;2.95;;
75932;SDS011;64803;52.356;5.310;2023-07-13T09:15:43;7.30;;;2.05;;
75932;SDS011;64803;52.356;5.310;2023-07-13T09:18:13;9.95;;;2.38;;
75932;SDS011;64803;52.356;5.310;2023-07-13T09:20:50;7.10;;;2.28;;
75932;SDS011;64803;52.356;5.310;2023-07-13T09:23:21;9.38;;;2.50;;
75932;SDS011;64803;52.356;5.310;2023-07-13T09:25:49;10.40;;;2.80;;
75932;SDS011;64803;52.356;5.310;2023-07-13T09:28:27;6.07;;;2.90;;
75932;SDS011;64803;52.356;5.310;2023-07-13T09:31:03;10.23;;;3.30;;
75932;SDS011;64803;52.356;5.310;2023-07-13T09:33:31;11.00;;;3.50;;
75932;SDS011;64803;52.356;5.310;2023-07-13T09:35:58;10.15;;;3.53;;
75932;SDS011;64803;52.356;5.310;2023-07-13T09:38:24;13.30;;;3.10;;
75932;SDS011;64803;52.356;5.310;2023-07-13T09:46:37;6.05;;;2.45;;
75932;SDS011;64803;52.356;5.310;2023-07-13T09:49:04;7.57;;;2.17;;
75932;SDS011;64803;52.356;5.310;2023-07-13T09:51:30;7.43;;;2.30;;
75932;SDS011;64803;52.356;5.310;2023-07-13T09:53:57;6.95;;;2.40;;
75932;SDS011;64803;52.356;5.310;2023-07-13T09:56:24;10.43;;;2.33;;
75932;SDS011;64803;52.356;5.310;2023-07-13T09:58:53;9.82;;;2.75;;
75932;SDS011;64803;52.356;5.310;2023-07-13T10:01:31;9.15;;;2.45;;
75932;SDS011;64803;52.356;5.310;2023-07-13T10:04:01;6.18;;;2.28;;
75932;SDS011;64803;52.356;5.310;2023-07-13T10:06:27;8.57;;;2.20;;
75932;SDS011;64803;52.356;5.310;2023-07-13T10:08:55;9.85;;;2.67;;
75932;SDS011;64803;52.356;5.310;2023-07-13T10:11:23;8.60;;;2.00;;
75932;SDS011;64803;52.356;5.310;2023-07-13T10:13:56;9.27;;;2.00;;
75932;SDS011;64803;52.356;5.310;2023-07-13T10:16:25;5.32;;;1.88;;
75932;SDS011;64803;52.356;5.310;2023-07-13T10:18:59;7.70;;;1.70;;
75932;SDS011;64803;52.356;5.310;2023-07-13T10:21:30;4.35;;;1.55;;
75932;SDS011;64803;52.356;5.310;2023-07-13T10:24:17;4.18;;;1.20;;
75932;SDS011;64803;52.356;5.310;2023-07-13T10:26:48;7.15;;;2.03;;
75932;SDS011;64803;52.356;5.310;2023-07-13T10:29:55;5.43;;;1.30;;
75932;SDS011;64803;52.356;5.310;2023-07-13T10:32:27;8.63;;;2.05;;
75932;SDS011;64803;52.356;5.310;2023-07-13T10:34:53;8.98;;;2.17;;
75932;SDS011;64803;52.356;5.310;2023-07-13T10:37:25;6.28;;;1.35;;
75932;SDS011;64803;52.356;5.310;2023-07-13T10:39:55;8.65;;;1.55;;
75932;SDS011;64803;52.356;5.310;2023-07-13T10:42:39;4.78;;;1.73;;
75932;SDS011;64803;52.356;5.310;2023-07-13T10:45:14;6.53;;;1.33;;
75932;SDS011;64803;52.356;5.310;2023-07-13T10:47:43;9.13;;;2.22;;
75932;SDS011;64803;52.356;5.310;2023-07-13T10:50:18;7.78;;;1.70;;
75932;SDS011;64803;52.356;5.310;2023-07-13T10:52:51;9.05;;;1.50;;
75932;SDS011;64803;52.356;5.310;2023-07-13T10:55:36;6.05;;;1.45;;
75932;SDS011;64803;52.356;5.310;2023-07-13T10:58:21;7.07;;;1.75;;
75932;SDS011;64803;52.356;5.310;2023-07-13T11:06:28;5.88;;;1.52;;
75932;SDS011;64803;52.356;5.310;2023-07-13T11:08:56;4.63;;;1.30;;
75932;SDS011;64803;52.356;5.310;2023-07-13T11:18:51;4.63;;;1.50;;
75932;SDS011;64803;52.356;5.310;2023-07-13T11:21:34;3.78;;;1.33;;
75932;SDS011;64803;52.356;5.310;2023-07-13T11:31:41;5.20;;;1.38;;
75932;SDS011;64803;52.356;5.310;2023-07-13T11:34:12;5.57;;;1.50;;
75932;SDS011;64803;52.356;5.310;2023-07-13T11:36:44;7.93;;;1.67;;
75932;SDS011;64803;52.356;5.310;2023-07-13T11:44:22;6.03;;;1.48;;
75932;SDS011;64803;52.356;5.310;2023-07-13T11:46:51;4.88;;;1.45;;
75932;SDS011;64803;52.356;5.310;2023-07-13T11:49:20;7.47;;;1.85;;
75932;SDS011;64803;52.356;5.310;2023-07-13T11:51:48;8.93;;;2.30;;
75932;SDS011;64803;52.356;5.310;2023-07-13T11:54:29;12.13;;;1.77;;
75932;SDS011;64803;52.356;5.310;2023-07-13T11:57:03;6.18;;;2.03;;
75932;SDS011;64803;52.356;5.310;2023-07-13T11:59:49;6.80;;;1.33;;
75932;SDS011;64803;52.356;5.310;2023-07-13T12:02:28;6.63;;;1.48;;
75932;SDS011;64803;52.356;5.310;2023-07-13T12:04:57;5.45;;;1.58;;
75932;SDS011;64803;52.356;5.310;2023-07-13T12:07:24;6.43;;;1.83;;
75932;SDS011;64803;52.356;5.310;2023-07-13T12:10:00;5.63;;;1.90;;
75932;SDS011;64803;52.356;5.310;2023-07-13T12:12:36;5.78;;;1.50;;
75932;SDS011;64803;52.356;5.310;2023-07-13T12:15:06;4.53;;;1.20;;
75932;SDS011;64803;52.356;5.310;2023-07-13T12:17:33;6.05;;;1.80;;
75932;SDS011;64803;52.356;5.310;2023-07-13T12:20:03;4.03;;;1.13;;
75932;SDS011;64803;52.356;5.310;2023-07-13T12:22:45;5.78;;;1.60;;
75932;SDS011;64803;52.356;5.310;2023-07-13T12:25:12;6.60;;;1.58;;
75932;SDS011;64803;52.356;5.310;2023-07-13T12:27:41;5.03;;;1.65;;
75932;SDS011;64803;52.356;5.310;2023-07-13T12:30:28;5.00;;;1.52;;
75932;SDS011;64803;52.356;5.310;2023-07-13T12:33:00;8.32;;;1.38;;
75932;SDS011;64803;52.356;5.310;2023-07-13T12:35:29;2.97;;;1.17;;
75932;SDS011;64803;52.356;5.310;2023-07-13T12:37:57;5.93;;;1.40;;
75932;SDS011;64803;52.356;5.310;2023-07-13T12:40:30;10.55;;;1.50;;
75932;SDS011;64803;52.356;5.310;2023-07-13T12:42:58;14.45;;;1.52;;
75932;SDS011;64803;52.356;5.310;2023-07-13T12:45:25;11.27;;;2.42;;
75932;SDS011;64803;52.356;5.310;2023-07-13T12:48:05;7.55;;;1.83;;
75932;SDS011;64803;52.356;5.310;2023-07-13T12:50:41;6.82;;;1.40;;
75932;SDS011;64803;52.356;5.310;2023-07-13T12:53:12;6.10;;;1.55;;
75932;SDS011;64803;52.356;5.310;2023-07-13T12:55:41;9.07;;;1.75;;
75932;SDS011;64803;52.356;5.310;2023-07-13T12:58:13;15.50;;;2.22;;
75932;SDS011;64803;52.356;5.310;2023-07-13T13:00:48;3.60;;;1.25;;
75932;SDS011;64803;52.356;5.310;2023-07-13T13:03:37;5.75;;;1.58;;
75932;SDS011;64803;52.356;5.310;2023-07-13T13:08:47;4.97;;;1.23;;
75932;SDS011;64803;52.356;5.310;2023-07-13T13:11:15;5.53;;;1.50;;
75932;SDS011;64803;52.356;5.310;2023-07-13T13:13:42;10.00;;;1.63;;
75932;SDS011;64803;52.356;5.310;2023-07-13T13:18:35;7.40;;;2.08;;
75932;SDS011;64803;52.356;5.310;2023-07-13T13:21:01;5.07;;;1.70;;
75932;SDS011;64803;52.356;5.310;2023-07-13T13:23:28;7.43;;;1.83;;
75932;SDS011;64803;52.356;5.310;2023-07-13T13:25:54;5.05;;;1.50;;
75932;SDS011;64803;52.356;5.310;2023-07-13T13:28:21;9.65;;;2.05;;
75932;SDS011;64803;52.356;5.310;2023-07-13T13:30:48;6.32;;;1.83;;
75932;SDS011;64803;52.356;5.310;2023-07-13T13:33:16;3.90;;;1.45;;
75932;SDS011;64803;52.356;5.310;2023-07-13T13:35:44;5.57;;;1.55;;
75932;SDS011;64803;52.356;5.310;2023-07-13T13:38:14;5.93;;;1.80;;
75932;SDS011;64803;52.356;5.310;2023-07-13T13:40:42;6.25;;;1.92;;
75932;SDS011;64803;52.356;5.310;2023-07-13T13:45:43;7.22;;;1.73;;
75932;SDS011;64803;52.356;5.310;2023-07-13T13:48:15;5.40;;;1.30;;
75932;SDS011;64803;52.356;5.310;2023-07-13T13:50:44;5.90;;;1.95;;
75932;SDS011;64803;52.356;5.310;2023-07-13T13:53:11;9.25;;;1.88;;
75932;SDS011;64803;52.356;5.310;2023-07-13T13:55:39;5.43;;;1.70;;
75932;SDS011;64803;52.356;5.310;2023-07-13T13:58:08;7.05;;;1.73;;
75932;SDS011;64803;52.356;5.310;2023-07-13T14:00:36;5.78;;;1.50;;
75932;SDS011;64803;52.356;5.310;2023-07-13T14:03:03;7.18;;;1.70;;
75932;SDS011;64803;52.356;5.310;2023-07-13T14:05:31;4.10;;;1.42;;
75932;SDS011;64803;52.356;5.310;2023-07-13T14:07:57;6.05;;;1.98;;
75932;SDS011;64803;52.356;5.310;2023-07-13T14:10:23;10.70;;;1.70;;
75932;SDS011;64803;52.356;5.310;2023-07-13T14:12:53;5.28;;;1.38;;
75932;SDS011;64803;52.356;5.310;2023-07-13T14:17:49;7.13;;;1.88;;
75932;SDS011;64803;52.356;5.310;2023-07-13T14:20:16;5.35;;;1.50;;
75932;SDS011;64803;52.356;5.310;2023-07-13T14:22:43;5.75;;;1.30;;
75932;SDS011;64803;52.356;5.310;2023-07-13T14:25:11;6.40;;;1.35;;
75932;SDS011;64803;52.356;5.310;2023-07-13T14:27:38;8.82;;;2.20;;
75932;SDS011;64803;52.356;5.310;2023-07-13T14:32:39;4.93;;;1.60;;
75932;SDS011;64803;52.356;5.310;2023-07-13T14:35:05;10.00;;;1.83;;
75932;SDS011;64803;52.356;5.310;2023-07-13T14:37:31;9.45;;;2.05;;
75932;SDS011;64803;52.356;5.310;2023-07-13T14:39:58;5.03;;;1.80;;
75932;SDS011;64803;52.356;5.310;2023-07-13T14:42:24;4.45;;;1.40;;
75932;SDS011;64803;52.356;5.310;2023-07-13T14:44:50;6.78;;;1.50;;
75932;SDS011;64803;52.356;5.310;2023-07-13T14:47:17;7.10;;;1.92;;
75932;SDS011;64803;52.356;5.310;2023-07-13T14:49:43;7.15;;;1.90;;
75932;SDS011;64803;52.356;5.310;2023-07-13T14:54:39;4.63;;;1.33;;
75932;SDS011;64803;52.356;5.310;2023-07-13T14:57:13;6.60;;;1.85;;
75932;SDS011;64803;52.356;5.310;2023-07-13T14:59:45;7.10;;;1.75;;
75932;SDS011;64803;52.356;5.310;2023-07-13T15:02:46;4.80;;;1.80;;
75932;SDS011;64803;52.356;5.310;2023-07-13T15:05:18;5.88;;;1.48;;
75932;SDS011;64803;52.356;5.310;2023-07-13T15:07:46;8.57;;;2.00;;
75932;SDS011;64803;52.356;5.310;2023-07-13T15:12:52;7.40;;;1.95;;
75932;SDS011;64803;52.356;5.310;2023-07-13T15:15:23;5.32;;;1.40;;
75932;SDS011;64803;52.356;5.310;2023-07-13T15:17:49;7.68;;;1.70;;
75932;SDS011;64803;52.356;5.310;2023-07-13T15:22:52;5.38;;;1.40;;
75932;SDS011;64803;52.356;5.310;2023-07-13T15:25:20;4.72;;;1.52;;
75932;SDS011;64803;52.356;5.310;2023-07-13T15:27:48;6.88;;;1.38;;
75932;SDS011;64803;52.356;5.310;2023-07-13T15:30:17;7.75;;;1.70;;
75932;SDS011;64803;52.356;5.310;2023-07-13T15:32:44;6.15;;;1.70;;
75932;SDS011;64803;52.356;5.310;2023-07-13T15:35:18;5.35;;;1.50;;
75932;SDS011;64803;52.356;5.310;2023-07-13T15:37:46;7.38;;;1.60;;
75932;SDS011;64803;52.356;5.310;2023-07-13T15:40:13;4.82;;;1.40;;
75932;SDS011;64803;52.356;5.310;2023-07-13T15:42:41;4.03;;;1.20;;
75932;SDS011;64803;52.356;5.310;2023-07-13T15:47:48;7.75;;;1.60;;
75932;SDS011;64803;52.356;5.310;2023-07-13T15:52:47;7.72;;;2.05;;
75932;SDS011;64803;52.356;5.310;2023-07-13T15:55:17;7.60;;;1.88;;
75932;SDS011;64803;52.356;5.310;2023-07-13T15:57:50;5.80;;;1.90;;
75932;SDS011;64803;52.356;5.310;2023-07-13T16:02:49;7.85;;;2.40;;
75932;SDS011;64803;52.356;5.310;2023-07-13T16:07:43;4.80;;;1.80;;
75932;SDS011;64803;52.356;5.310;2023-07-13T16:10:16;6.97;;;1.60;;